Time;durP1;ratioP1;P1;durP2;ratioP2;P2;SDS_P1;SDS_P2;PMS_P1;PMS_P2;Temp;Humidity;BMP_temperature;BMP_pressure;BME280_temperature;BME280_humidity;BME280_pressure;Samples;Min_cycle;Max_cycle;Signal;HPM_P1;HPM_P2
2022/03/03 00:00:24;;;;;;;5.43;2.33;;;;;;;;;;4990426;28;20058;-68
2022/03/03 00:02:57;;;;;;;4.03;1.67;;;;;;;;;;4974670;28;20063;-68
2022/03/03 00:05:29;;;;;;;4.75;1.88;;;;;;;;;;4990584;28;20111;-67
2022/03/03 00:07:59;;;;;;;4.35;2.10;;;;;;;;;;4974736;28;20084;-67
2022/03/03 00:10:32;;;;;;;7.63;2.42;;;;;;;;;;4951349;28;20055;-68
2022/03/03 00:13:03;;;;;;;5.50;2.03;;;;;;;;;;4903742;29;20055;-67
2022/03/03 00:15:38;;;;;;;3.83;1.80;;;;;;;;;;4946943;28;20496;-68
2022/03/03 00:18:08;;;;;;;6.30;2.20;;;;;;;;;;4903991;28;20051;-68
2022/03/03 00:20:40;;;;;;;5.22;2.10;;;;;;;;;;4919645;28;20054;-68
2022/03/03 00:23:11;;;;;;;4.35;2.33;;;;;;;;;;4954584;28;20058;-68
2022/03/03 00:25:43;;;;;;;6.35;1.90;;;;;;;;;;4970809;28;20059;-68
2022/03/03 00:28:17;;;;;;;8.77;2.30;;;;;;;;;;4955531;28;20062;-68
2022/03/03 00:30:48;;;;;;;4.53;1.85;;;;;;;;;;4934921;28;20047;-68
2022/03/03 00:33:19;;;;;;;5.07;2.08;;;;;;;;;;4916481;28;20058;-68
2022/03/03 00:35:52;;;;;;;7.35;2.30;;;;;;;;;;4963101;28;20453;-67
2022/03/03 00:38:22;;;;;;;5.60;2.22;;;;;;;;;;4976093;28;20054;-68
2022/03/03 00:40:53;;;;;;;4.57;2.03;;;;;;;;;;5009498;28;20046;-67
2022/03/03 00:43:24;;;;;;;6.78;2.13;;;;;;;;;;5009606;28;20064;-68
2022/03/03 00:45:55;;;;;;;7.28;2.10;;;;;;;;;;5009298;28;20065;-67
2022/03/03 00:48:25;;;;;;;8.23;2.28;;;;;;;;;;4973485;28;20054;-69
2022/03/03 00:51:04;;;;;;;4.22;1.95;;;;;;;;;;4989789;28;20422;-68
2022/03/03 00:53:39;;;;;;;4.93;2.20;;;;;;;;;;4976512;28;20194;-68
2022/03/03 00:56:13;;;;;;;;;;;;;;;;;;5009698;28;20062;-68
2022/03/03 00:58:43;;;;;;;5.07;2.03;;;;;;;;;;4976584;28;19921;-67
2022/03/03 01:01:14;;;;;;;6.80;2.17;;;;;;;;;;5012658;28;20053;-68
2022/03/03 01:03:45;;;;;;;7.20;2.60;;;;;;;;;;5028670;28;20037;-68
2022/03/03 01:06:18;;;;;;;7.38;3.03;;;;;;;;;;5028958;28;20597;-69
2022/03/03 01:08:51;;;;;;;9.63;2.20;;;;;;;;;;5028542;28;20536;-67
2022/03/03 01:11:22;;;;;;;7.15;1.92;;;;;;;;;;5008884;28;20545;-68
2022/03/03 01:13:56;;;;;;;5.53;2.40;;;;;;;;;;5008878;28;20076;-68
2022/03/03 01:16:28;;;;;;;4.15;2.28;;;;;;;;;;5009024;28;20062;-68
2022/03/03 01:18:59;;;;;;;4.18;2.00;;;;;;;;;;5009003;28;20134;-67
2022/03/03 01:21:37;;;;;;;4.82;2.03;;;;;;;;;;4994175;28;20049;-68
2022/03/03 01:24:11;;;;;;;4.72;2.00;;;;;;;;;;4969491;28;20067;-68
2022/03/03 01:26:43;;;;;;;3.92;1.95;;;;;;;;;;4984685;28;20069;-69
2022/03/03 01:29:16;;;;;;;5.80;2.70;;;;;;;;;;4988997;28;20066;-68
2022/03/03 01:31:47;;;;;;;6.45;2.00;;;;;;;;;;4953184;28;20077;-68
2022/03/03 01:34:20;;;;;;;8.75;2.50;;;;;;;;;;4938066;28;20055;-68
2022/03/03 01:36:55;;;;;;;6.13;1.98;;;;;;;;;;4937411;28;20051;-69
2022/03/03 01:39:25;;;;;;;8.38;2.35;;;;;;;;;;4950025;29;20058;-68
2022/03/03 01:41:57;;;;;;;6.38;2.15;;;;;;;;;;4902796;29;20062;-69
2022/03/03 01:44:30;;;;;;;4.85;1.98;;;;;;;;;;4950405;29;20066;-68
2022/03/03 01:47:01;;;;;;;11.25;2.13;;;;;;;;;;4912293;29;20508;-68
2022/03/03 01:49:31;;;;;;;11.32;2.22;;;;;;;;;;4927523;29;20064;-68
2022/03/03 01:52:02;;;;;;;6.85;2.22;;;;;;;;;;4903575;29;20412;-67
2022/03/03 01:54:39;;;;;;;7.45;2.30;;;;;;;;;;4934969;29;20055;-68
2022/03/03 01:57:12;;;;;;;7.07;2.42;;;;;;;;;;4935054;29;20060;-68
2022/03/03 01:59:44;;;;;;;9.02;2.35;;;;;;;;;;4903178;29;20058;-68
2022/03/03 02:02:16;;;;;;;6.72;2.33;;;;;;;;;;4951895;28;20085;-69
2022/03/03 02:04:50;;;;;;;4.63;2.00;;;;;;;;;;4940850;28;20061;-69
2022/03/03 02:07:24;;;;;;;4.15;2.05;;;;;;;;;;4973192;28;20499;-69
2022/03/03 02:09:55;;;;;;;6.05;2.30;;;;;;;;;;4973229;28;20499;-69
2022/03/03 02:12:25;;;;;;;4.47;2.00;;;;;;;;;;4973541;28;20070;-68
2022/03/03 02:14:59;;;;;;;5.40;2.13;;;;;;;;;;4992422;28;21250;-68
2022/03/03 02:17:31;;;;;;;4.75;2.13;;;;;;;;;;4989435;28;20410;-68
2022/03/03 02:20:06;;;;;;;7.95;2.10;;;;;;;;;;4995891;28;20065;-68
2022/03/03 02:22:38;;;;;;;6.53;1.98;;;;;;;;;;5012179;28;20050;-68
2022/03/03 02:25:10;;;;;;;5.97;2.22;;;;;;;;;;5025864;28;20069;-68
2022/03/03 02:27:42;;;;;;;6.00;2.25;;;;;;;;;;4992172;28;20054;-68
2022/03/03 02:30:16;;;;;;;5.80;2.70;;;;;;;;;;4992583;28;20098;-67
2022/03/03 02:32:48;;;;;;;8.90;2.47;;;;;;;;;;5007006;28;20069;-68
2022/03/03 02:35:20;;;;;;;6.25;2.83;;;;;;;;;;5011570;28;20060;-68
2022/03/03 02:37:55;;;;;;;6.35;2.90;;;;;;;;;;5011941;28;20058;-68
2022/03/03 02:40:26;;;;;;;7.00;3.05;;;;;;;;;;5011864;28;20053;-68
2022/03/03 02:42:56;;;;;;;9.63;3.85;;;;;;;;;;4978983;28;20061;-68
2022/03/03 02:45:29;;;;;;;8.50;3.22;;;;;;;;;;5011521;28;20427;-68
2022/03/03 02:48:04;;;;;;;9.43;2.63;;;;;;;;;;5011765;28;20075;-66
2022/03/03 02:50:35;;;;;;;14.15;3.47;;;;;;;;;;4991979;28;20062;-68
2022/03/03 02:53:06;;;;;;;12.00;3.20;;;;;;;;;;4971401;28;20457;-68
2022/03/03 02:55:36;;;;;;;10.15;3.60;;;;;;;;;;4983230;28;20057;-68
2022/03/03 02:58:10;;;;;;;10.52;3.17;;;;;;;;;;4991746;28;20054;-68
2022/03/03 03:00:46;;;;;;;9.80;2.85;;;;;;;;;;4974844;28;20042;-68
2022/03/03 03:03:19;;;;;;;8.18;2.95;;;;;;;;;;4991490;28;20062;-67
2022/03/03 03:05:52;;;;;;;7.05;2.53;;;;;;;;;;4957813;28;20058;-69
2022/03/03 03:08:25;;;;;;;7.05;2.92;;;;;;;;;;4994838;28;20081;-68
2022/03/03 03:10:57;;;;;;;6.75;2.92;;;;;;;;;;5011287;28;20058;-68
2022/03/03 03:13:29;;;;;;;8.13;2.85;;;;;;;;;;4962816;28;20065;-69
2022/03/03 03:16:00;;;;;;;9.88;3.17;;;;;;;;;;4991348;28;20053;-67
2022/03/03 03:18:33;;;;;;;9.25;3.30;;;;;;;;;;4991273;28;20521;-68
2022/03/03 03:21:03;;;;;;;7.00;3.40;;;;;;;;;;4940041;28;20051;-68
2022/03/03 03:23:35;;;;;;;;;;;;;;;;;;4972259;28;20046;-68
2022/03/03 03:26:07;;;;;;;7.40;3.47;;;;;;;;;;4971952;28;19929;-68
2022/03/03 03:28:40;;;;;;;7.15;3.00;;;;;;;;;;4940121;28;20054;-69
2022/03/03 03:31:10;;;;;;;8.93;3.35;;;;;;;;;;4971961;28;20051;-68
2022/03/03 03:33:44;;;;;;;5.78;2.90;;;;;;;;;;4969653;28;20068;-68
2022/03/03 03:36:15;;;;;;;7.85;3.22;;;;;;;;;;5025052;28;20111;-68
2022/03/03 03:38:46;;;;;;;8.75;3.25;;;;;;;;;;5014146;28;20395;-68
2022/03/03 03:41:16;;;;;;;9.43;3.38;;;;;;;;;;5030388;28;20057;-67
2022/03/03 03:43:47;;;;;;;11.73;3.75;;;;;;;;;;5014332;28;20045;-68
2022/03/03 03:46:17;;;;;;;9.18;3.33;;;;;;;;;;5013737;28;20065;-70
2022/03/03 03:48:50;;;;;;;9.98;3.47;;;;;;;;;;5030265;28;20548;-69
2022/03/03 03:51:20;;;;;;;6.80;3.20;;;;;;;;;;5030305;28;20065;-68
2022/03/03 03:53:50;;;;;;;9.77;3.03;;;;;;;;;;4992594;28;20524;-68
2022/03/03 03:56:24;;;;;;;7.88;3.30;;;;;;;;;;5016931;28;20056;-68
2022/03/03 03:59:00;;;;;;;9.65;2.83;;;;;;;;;;5063696;28;20064;-67
2022/03/03 04:01:31;;;;;;;9.93;2.95;;;;;;;;;;5038706;28;20059;-68
2022/03/03 04:04:02;;;;;;;6.35;3.50;;;;;;;;;;5072345;28;20039;-68
2022/03/03 04:06:33;;;;;;;8.40;3.03;;;;;;;;;;5072690;28;20037;-69
2022/03/03 04:09:05;;;;;;;9.75;3.53;;;;;;;;;;5072119;28;20045;-68
2022/03/03 04:11:35;;;;;;;8.77;3.42;;;;;;;;;;5072104;28;20055;-68
2022/03/03 04:14:09;;;;;;;9.38;3.53;;;;;;;;;;5052735;28;20056;-68
2022/03/03 04:16:41;;;;;;;11.93;3.45;;;;;;;;;;5036746;28;20056;-68
2022/03/03 04:19:14;;;;;;;7.00;3.30;;;;;;;;;;5021623;28;20052;-68
2022/03/03 04:21:45;;;;;;;8.18;3.75;;;;;;;;;;5071981;28;20036;-69
2022/03/03 04:24:15;;;;;;;6.88;3.05;;;;;;;;;;5053141;28;20052;-68
2022/03/03 04:26:47;;;;;;;9.23;3.17;;;;;;;;;;5071987;28;20041;-69
2022/03/03 04:29:18;;;;;;;8.18;3.38;;;;;;;;;;5029194;28;20092;-68
2022/03/03 04:31:51;;;;;;;10.35;3.92;;;;;;;;;;5029459;28;20057;-68
2022/03/03 04:34:21;;;;;;;7.40;3.60;;;;;;;;;;4980621;28;20053;-68
2022/03/03 04:36:53;;;;;;;8.70;3.60;;;;;;;;;;5029399;28;20485;-68
2022/03/03 04:39:26;;;;;;;7.13;3.78;;;;;;;;;;5029418;28;20054;-67
2022/03/03 04:41:58;;;;;;;10.48;3.90;;;;;;;;;;5029344;28;20064;-68
2022/03/03 04:44:29;;;;;;;7.70;3.50;;;;;;;;;;4996407;28;20053;-68
2022/03/03 04:46:59;;;;;;;7.03;3.42;;;;;;;;;;5029191;28;20057;-68
2022/03/03 04:49:33;;;;;;;9.30;3.50;;;;;;;;;;4996802;28;20062;-67
2022/03/03 04:52:05;;;;;;;8.00;3.83;;;;;;;;;;5029320;28;20041;-68
2022/03/03 04:54:39;;;;;;;8.75;3.97;;;;;;;;;;5028838;28;20092;-68
2022/03/03 04:57:09;;;;;;;7.90;3.50;;;;;;;;;;5029055;28;20056;-68
2022/03/03 04:59:43;;;;;;;10.23;3.50;;;;;;;;;;5008922;28;20054;-68
2022/03/03 05:02:13;;;;;;;9.25;3.35;;;;;;;;;;4960645;28;20077;-68
2022/03/03 05:04:43;;;;;;;13.00;3.15;;;;;;;;;;5009148;28;20193;-68
2022/03/03 05:07:16;;;;;;;6.28;3.22;;;;;;;;;;5033967;28;20057;-68
2022/03/03 05:09:49;;;;;;;9.32;3.35;;;;;;;;;;5048662;28;20083;-68
2022/03/03 05:12:19;;;;;;;;;;;;;;;;;;5032530;28;20060;-69
2022/03/03 05:14:50;;;;;;;8.57;3.65;;;;;;;;;;5048375;28;19928;-68
2022/03/03 05:17:21;;;;;;;12.13;3.00;;;;;;;;;;5048800;28;20810;-69
2022/03/03 05:19:57;;;;;;;7.93;3.05;;;;;;;;;;4999808;28;20056;-68
2022/03/03 05:22:28;;;;;;;4.95;2.60;;;;;;;;;;5048601;28;20048;-68
2022/03/03 05:24:57;;;;;;;4.15;2.03;;;;;;;;;;5048030;28;20126;-68
2022/03/03 05:27:30;;;;;;;11.00;2.50;;;;;;;;;;5048743;28;20390;-68
2022/03/03 05:30:02;;;;;;;;;;;;;;;;;;5015889;28;20053;-68
2022/03/03 05:32:34;;;;;;;7.65;2.40;;;;;;;;;;5020967;28;19927;-68
2022/03/03 05:35:09;;;;;;;8.38;2.70;;;;;;;;;;4995267;28;20152;-68
2022/03/03 05:37:40;;;;;;;6.35;3.28;;;;;;;;;;5019525;28;20202;-68
2022/03/03 05:40:14;;;;;;;9.05;2.90;;;;;;;;;;5068336;28;20049;-68
2022/03/03 05:42:44;;;;;;;8.95;2.65;;;;;;;;;;5068422;28;20404;-68
2022/03/03 05:45:15;;;;;;;12.98;3.00;;;;;;;;;;5068373;28;20123;-68
2022/03/03 05:47:49;;;;;;;7.68;2.80;;;;;;;;;;5068474;28;20109;-68
2022/03/03 05:50:21;;;;;;;9.75;3.38;;;;;;;;;;5035168;28;20059;-68
2022/03/03 05:52:51;;;;;;;11.07;3.40;;;;;;;;;;5068398;28;20064;-69
2022/03/03 05:55:21;;;;;;;8.18;3.28;;;;;;;;;;5068245;28;20056;-68
2022/03/03 05:57:54;;;;;;;12.10;3.45;;;;;;;;;;5068374;28;20055;-68
2022/03/03 06:00:29;;;;;;;13.93;3.40;;;;;;;;;;5051658;28;20057;-69
2022/03/03 06:03:03;;;;;;;8.48;3.38;;;;;;;;;;5035869;28;20052;-69
2022/03/03 06:05:36;;;;;;;10.73;3.72;;;;;;;;;;5051643;28;20049;-69
2022/03/03 06:08:13;;;;;;;7.20;3.72;;;;;;;;;;5067930;28;20052;-69
2022/03/03 06:10:53;;;;;;;10.05;3.38;;;;;;;;;;5067984;28;20440;-68
2022/03/03 06:13:28;;;;;;;12.50;3.42;;;;;;;;;;5083695;28;20056;-68
2022/03/03 06:15:58;;;;;;;10.45;3.55;;;;;;;;;;5038492;28;20052;-67
2022/03/03 06:18:33;;;;;;;7.82;2.95;;;;;;;;;;5071442;28;20059;-68
2022/03/03 06:21:08;;;;;;;6.22;2.40;;;;;;;;;;5088071;28;20496;-67
2022/03/03 06:23:38;;;;;;;9.32;2.70;;;;;;;;;;5054406;28;20055;-68
2022/03/03 06:26:17;;;;;;;13.38;4.55;;;;;;;;;;5071988;28;20048;-67
2022/03/03 06:28:51;;;;;;;9.68;2.80;;;;;;;;;;5054289;28;20511;-68
2022/03/03 06:31:27;;;;;;;11.10;2.90;;;;;;;;;;5088057;28;20048;-67
2022/03/03 06:33:59;;;;;;;11.40;2.72;;;;;;;;;;5047234;28;20061;-68
2022/03/03 06:36:29;;;;;;;5.97;2.80;;;;;;;;;;5049630;28;20103;-67
2022/03/03 06:39:00;;;;;;;5.88;2.42;;;;;;;;;;5002039;28;20049;-67
2022/03/03 06:41:33;;;;;;;6.28;2.80;;;;;;;;;;5011530;28;20057;-67
2022/03/03 06:44:04;;;;;;;9.07;2.60;;;;;;;;;;5011946;28;20060;-68
2022/03/03 06:46:36;;;;;;;5.13;2.38;;;;;;;;;;4979145;28;20054;-68
2022/03/03 06:49:15;;;;;;;6.07;2.50;;;;;;;;;;5011610;28;20564;-68
2022/03/03 06:51:49;;;;;;;7.85;2.65;;;;;;;;;;5011505;28;20046;-68
2022/03/03 06:54:22;;;;;;;9.10;2.70;;;;;;;;;;4952641;29;20055;-66
2022/03/03 06:56:56;;;;;;;8.30;2.50;;;;;;;;;;4937773;29;20563;-67
2022/03/03 06:59:33;;;;;;;6.18;2.30;;;;;;;;;;4917991;29;20066;-68
2022/03/03 07:02:08;;;;;;;5.72;2.47;;;;;;;;;;4934147;29;20475;-68
2022/03/03 07:04:40;;;;;;;10.10;2.33;;;;;;;;;;4933782;29;20063;-67
2022/03/03 07:07:13;;;;;;;6.90;2.60;;;;;;;;;;4933806;29;20197;-67
2022/03/03 07:09:47;;;;;;;6.05;2.42;;;;;;;;;;4902311;29;20068;-67
2022/03/03 07:12:18;;;;;;;7.18;2.35;;;;;;;;;;4903462;29;20071;-68
2022/03/03 07:14:50;;;;;;;6.30;2.13;;;;;;;;;;4914794;29;20064;-68
2022/03/03 07:17:37;;;;;;;7.25;2.33;;;;;;;;;;4901752;29;20100;-68
2022/03/03 07:20:15;;;;;;;7.85;2.28;;;;;;;;;;4918225;29;20051;-68
2022/03/03 07:23:05;;;;;;;8.43;2.25;;;;;;;;;;4932981;29;20056;-68
2022/03/03 07:25:51;;;;;;;6.25;2.72;;;;;;;;;;4887665;29;20105;-68
2022/03/03 07:28:22;;;;;;;10.88;2.40;;;;;;;;;;4933635;29;20059;-67
2022/03/03 07:30:55;;;;;;;7.93;2.50;;;;;;;;;;4934618;28;20056;-68
2022/03/03 07:33:45;;;;;;;6.80;2.22;;;;;;;;;;4986394;28;20054;-68
2022/03/03 07:36:24;;;;;;;4.95;2.50;;;;;;;;;;4965021;28;20053;-68
2022/03/03 07:38:57;;;;;;;6.18;2.30;;;;;;;;;;4978175;28;20054;-67
2022/03/03 07:41:29;;;;;;;6.90;2.50;;;;;;;;;;5010563;28;20057;-68
2022/03/03 07:44:04;;;;;;;8.40;2.40;;;;;;;;;;4990607;28;20046;-68
2022/03/03 07:46:35;;;;;;;11.48;2.63;;;;;;;;;;4958173;28;20061;-68
2022/03/03 07:49:10;;;;;;;8.77;2.70;;;;;;;;;;4991083;28;20392;-68
2022/03/03 07:51:41;;;;;;;11.40;2.53;;;;;;;;;;4971057;28;20061;-68
2022/03/03 07:54:14;;;;;;;7.03;2.58;;;;;;;;;;4936079;29;20523;-68
2022/03/03 07:56:54;;;;;;;9.30;2.63;;;;;;;;;;4951859;29;20062;-67
2022/03/03 07:59:31;;;;;;;8.25;2.55;;;;;;;;;;4955554;28;20070;-68
2022/03/03 08:02:05;;;;;;;6.93;2.53;;;;;;;;;;4990801;28;20572;-68
2022/03/03 08:04:41;;;;;;;5.97;2.33;;;;;;;;;;4959687;28;20602;-67
2022/03/03 08:07:15;;;;;;;7.47;2.30;;;;;;;;;;4920388;29;20055;-68
2022/03/03 08:09:49;;;;;;;10.77;2.53;;;;;;;;;;4916505;29;20047;-68
2022/03/03 08:12:25;;;;;;;10.57;2.22;;;;;;;;;;4932658;29;20059;-67
2022/03/03 08:15:02;;;;;;;13.50;2.30;;;;;;;;;;4932421;29;20539;-66
2022/03/03 08:17:34;;;;;;;10.65;2.50;;;;;;;;;;4932574;29;20059;-66
2022/03/03 08:20:08;;;;;;;7.55;2.03;;;;;;;;;;4932873;29;20519;-67
2022/03/03 08:22:41;;;;;;;8.77;2.10;;;;;;;;;;4831811;29;20536;-67
2022/03/03 08:25:15;;;;;;;8.18;2.20;;;;;;;;;;4875690;29;20061;-67
2022/03/03 08:27:48;;;;;;;8.52;2.15;;;;;;;;;;4875891;29;20057;-66
2022/03/03 08:30:19;;;;;;;7.25;2.15;;;;;;;;;;4927038;29;20062;-67
2022/03/03 08:32:58;;;;;;;7.05;2.90;;;;;;;;;;4975103;28;20058;-67
2022/03/03 08:35:36;;;;;;;6.60;2.40;;;;;;;;;;4990390;28;20410;-67
2022/03/03 08:38:17;;;;;;;6.72;2.47;;;;;;;;;;4990068;28;20066;-66
2022/03/03 08:40:50;;;;;;;8.55;1.90;;;;;;;;;;4974413;28;20465;-66
2022/03/03 08:43:26;;;;;;;8.98;2.55;;;;;;;;;;4989791;28;20046;-67
2022/03/03 08:46:02;;;;;;;5.40;2.10;;;;;;;;;;5029208;28;20060;-67
2022/03/03 08:48:34;;;;;;;11.43;2.63;;;;;;;;;;5013383;28;20053;-67
2022/03/03 08:51:05;;;;;;;7.88;2.35;;;;;;;;;;5029378;28;20548;-67
2022/03/03 08:53:35;;;;;;;11.35;2.50;;;;;;;;;;5029073;28;20094;-67
2022/03/03 08:56:06;;;;;;;9.35;2.75;;;;;;;;;;5029251;28;20405;-66
2022/03/03 08:58:37;;;;;;;6.65;2.65;;;;;;;;;;5028314;28;20041;-67
2022/03/03 09:01:07;;;;;;;8.52;2.80;;;;;;;;;;5045046;28;20056;-67
2022/03/03 09:03:40;;;;;;;5.50;3.03;;;;;;;;;;5032703;28;20531;-67
2022/03/03 09:06:17;;;;;;;8.32;2.92;;;;;;;;;;5028687;28;20056;-66
2022/03/03 09:08:48;;;;;;;5.97;2.72;;;;;;;;;;5028679;28;20061;-67
2022/03/03 09:11:21;;;;;;;8.80;2.42;;;;;;;;;;4973895;28;20380;-67
2022/03/03 09:13:51;;;;;;;6.78;2.70;;;;;;;;;;4989306;28;20054;-67
2022/03/03 09:16:24;;;;;;;5.15;2.65;;;;;;;;;;4989467;28;20059;-67
2022/03/03 09:18:58;;;;;;;10.10;2.45;;;;;;;;;;4973009;28;20159;-67
2022/03/03 09:21:29;;;;;;;9.30;2.47;;;;;;;;;;4957146;28;20054;-67
2022/03/03 09:23:59;;;;;;;6.97;2.45;;;;;;;;;;4972577;28;20054;-67
2022/03/03 09:26:30;;;;;;;8.52;2.88;;;;;;;;;;4989446;28;20057;-67
2022/03/03 09:29:09;;;;;;;8.98;2.30;;;;;;;;;;4989014;28;20510;-67
2022/03/03 09:31:43;;;;;;;7.20;2.80;;;;;;;;;;4989169;28;20065;-66
2022/03/03 09:34:15;;;;;;;5.03;2.60;;;;;;;;;;5019643;28;20412;-67
2022/03/03 09:36:50;;;;;;;8.68;2.20;;;;;;;;;;5048623;28;20061;-67
2022/03/03 09:39:28;;;;;;;8.32;2.50;;;;;;;;;;5048398;28;20045;-67
2022/03/03 09:41:58;;;;;;;9.57;2.88;;;;;;;;;;5048447;28;20629;-67
2022/03/03 09:44:32;;;;;;;5.15;2.30;;;;;;;;;;5064028;28;20057;-66
2022/03/03 09:47:03;;;;;;;6.15;2.50;;;;;;;;;;5048217;28;20049;-66
2022/03/03 09:49:38;;;;;;;5.35;2.17;;;;;;;;;;5041412;28;20531;-67
2022/03/03 09:52:19;;;;;;;5.93;2.22;;;;;;;;;;5068240;28;20203;-67
2022/03/03 09:54:57;;;;;;;8.95;2.85;;;;;;;;;;5035046;28;20048;-67
2022/03/03 09:57:28;;;;;;;8.02;2.80;;;;;;;;;;5034747;28;20504;-67
2022/03/03 10:00:03;;;;;;;8.35;2.83;;;;;;;;;;5018862;28;20060;-67
2022/03/03 10:03:07;;;;;;;10.80;2.47;;;;;;;;;;5005812;28;20087;-67
2022/03/03 10:05:47;;;;;;;6.97;2.80;;;;;;;;;;5027862;28;20053;-68
2022/03/03 10:08:22;;;;;;;5.97;2.97;;;;;;;;;;5028219;28;20056;-67
2022/03/03 10:10:59;;;;;;;12.60;3.40;;;;;;;;;;4991057;28;20410;-68
2022/03/03 10:13:47;;;;;;;5.57;2.80;;;;;;;;;;4992733;28;20058;-67
2022/03/03 10:16:31;;;;;;;8.13;3.28;;;;;;;;;;4992398;28;20058;-67
2022/03/03 10:19:04;;;;;;;11.15;3.35;;;;;;;;;;4944359;28;20081;-67
2022/03/03 10:21:38;;;;;;;11.60;4.15;;;;;;;;;;4992625;28;20525;-67
2022/03/03 10:24:19;;;;;;;10.75;3.50;;;;;;;;;;5003522;28;20065;-68
2022/03/03 10:27:01;;;;;;;8.65;3.33;;;;;;;;;;5032031;28;20052;-69
2022/03/03 10:29:32;;;;;;;10.43;3.20;;;;;;;;;;5031788;28;20057;-67
2022/03/03 10:32:07;;;;;;;12.27;4.05;;;;;;;;;;5031515;28;20045;-66
2022/03/03 10:34:43;;;;;;;10.80;3.83;;;;;;;;;;5015916;28;20056;-66
2022/03/03 10:37:23;;;;;;;17.80;5.30;;;;;;;;;;5031756;28;20077;-67
2022/03/03 10:40:00;;;;;;;12.95;4.85;;;;;;;;;;4998949;28;20054;-68
2022/03/03 10:42:38;;;;;;;12.23;4.60;;;;;;;;;;4991076;28;20055;-68
2022/03/03 10:45:19;;;;;;;14.88;4.30;;;;;;;;;;5071430;28;20051;-68
2022/03/03 10:48:03;;;;;;;17.67;4.40;;;;;;;;;;5059935;28;20055;-68
2022/03/03 10:50:47;;;;;;;10.93;4.78;;;;;;;;;;5094029;28;20059;-68
2022/03/03 10:53:23;;;;;;;12.70;4.78;;;;;;;;;;5038896;28;20052;-67
2022/03/03 10:56:18;;;;;;;11.05;5.15;;;;;;;;;;5007602;28;20420;-66
2022/03/03 10:58:55;;;;;;;17.52;6.78;;;;;;;;;;5038276;28;20060;-68
2022/03/03 11:01:28;;;;;;;13.45;5.47;;;;;;;;;;5021260;28;20068;-68
2022/03/03 11:04:00;;;;;;;15.98;4.85;;;;;;;;;;5055060;28;20049;-68
2022/03/03 11:06:33;;;;;;;13.57;4.85;;;;;;;;;;5071119;28;20045;-68
2022/03/03 11:09:05;;;;;;;12.50;5.22;;;;;;;;;;5054802;28;20051;-68
2022/03/03 11:11:35;;;;;;;12.35;5.50;;;;;;;;;;5070800;28;20079;-69
2022/03/03 11:14:06;;;;;;;12.25;4.68;;;;;;;;;;4973500;28;20064;-68
2022/03/03 11:16:41;;;;;;;11.05;5.45;;;;;;;;;;5037612;28;20049;-68
2022/03/03 11:19:21;;;;;;;14.68;5.68;;;;;;;;;;5070920;28;20060;-69
2022/03/03 11:21:51;;;;;;;9.90;5.45;;;;;;;;;;5070087;28;20049;-68
2022/03/03 11:24:27;;;;;;;12.30;5.18;;;;;;;;;;5070656;28;20063;-70
2022/03/03 11:27:02;;;;;;;16.67;5.80;;;;;;;;;;5030332;28;20544;-69
2022/03/03 11:29:37;;;;;;;14.23;5.18;;;;;;;;;;4993545;28;20057;-69
2022/03/03 11:32:15;;;;;;;10.57;5.50;;;;;;;;;;5027208;28;20057;-69
2022/03/03 11:34:49;;;;;;;9.88;5.28;;;;;;;;;;5027409;28;20421;-69
2022/03/03 11:37:24;;;;;;;18.20;5.35;;;;;;;;;;4990500;28;20046;-69
2022/03/03 11:40:01;;;;;;;12.00;6.13;;;;;;;;;;4975332;28;20073;-68
2022/03/03 11:42:35;;;;;;;16.27;6.10;;;;;;;;;;4990684;28;20406;-69
2022/03/03 11:45:13;;;;;;;12.15;5.88;;;;;;;;;;4990590;28;20058;-68
2022/03/03 11:47:50;;;;;;;12.95;5.85;;;;;;;;;;4991035;28;20458;-69
2022/03/03 11:50:25;;;;;;;17.27;6.07;;;;;;;;;;4975146;28;20062;-68
2022/03/03 11:53:03;;;;;;;14.25;6.88;;;;;;;;;;4990823;28;20435;-68
2022/03/03 11:55:41;;;;;;;14.77;8.02;;;;;;;;;;4958607;28;20067;-67
2022/03/03 11:58:16;;;;;;;19.05;9.55;;;;;;;;;;4990911;28;20506;-69
2022/03/03 12:01:05;;;;;;;24.40;14.50;;;;;;;;;;4990654;28;20618;-68
2022/03/03 12:04:01;;;;;;;29.50;14.00;;;;;;;;;;4948405;28;20058;-67
2022/03/03 12:06:45;;;;;;;19.77;10.88;;;;;;;;;;5015372;28;20702;-68
2022/03/03 12:09:30;;;;;;;24.13;11.57;;;;;;;;;;5014281;28;20406;-69
2022/03/03 12:12:10;;;;;;;21.98;12.52;;;;;;;;;;5029874;28;20568;-69
2022/03/03 12:14:50;;;;;;;;;;;;;;;;;;5020485;28;20116;-69
2022/03/03 12:17:44;;;;;;;21.88;10.65;;;;;;;;;;5053856;28;19931;-69
2022/03/03 12:20:24;;;;;;;19.30;11.02;;;;;;;;;;5081340;28;20048;-69
2022/03/03 12:23:31;;;;;;;16.23;9.00;;;;;;;;;;5077454;28;20056;-70
2022/03/03 12:26:04;;;;;;;13.07;7.43;;;;;;;;;;5092184;28;20039;-70
2022/03/03 12:28:47;;;;;;;18.88;9.43;;;;;;;;;;5058876;28;20055;-68
2022/03/03 12:31:40;;;;;;;18.63;8.85;;;;;;;;;;5057035;28;20055;-66
2022/03/03 12:34:12;;;;;;;15.52;7.40;;;;;;;;;;5072290;28;20064;-66
2022/03/03 12:36:44;;;;;;;13.77;7.20;;;;;;;;;;5000671;28;20052;-70
2022/03/03 12:39:17;;;;;;;17.30;6.97;;;;;;;;;;5049330;28;20052;-70
2022/03/03 12:41:52;;;;;;;14.05;6.72;;;;;;;;;;5049336;28;20390;-71
2022/03/03 12:44:25;;;;;;;17.98;6.35;;;;;;;;;;5049334;28;20045;-69
2022/03/03 12:46:56;;;;;;;11.35;5.70;;;;;;;;;;4989629;28;20065;-70
2022/03/03 12:49:28;;;;;;;8.93;5.47;;;;;;;;;;4989850;28;20053;-70
2022/03/03 12:52:03;;;;;;;11.48;5.05;;;;;;;;;;4941896;28;20050;-70
2022/03/03 12:54:37;;;;;;;12.32;5.45;;;;;;;;;;4989871;28;20054;-69
2022/03/03 12:57:08;;;;;;;7.45;4.25;;;;;;;;;;4989691;28;20090;-71
2022/03/03 12:59:40;;;;;;;6.65;3.97;;;;;;;;;;4989686;28;20423;-67
2022/03/03 13:02:15;;;;;;;9.20;4.72;;;;;;;;;;4989745;28;20054;-69
2022/03/03 13:04:46;;;;;;;13.35;4.72;;;;;;;;;;4989702;28;20054;-69
2022/03/03 13:07:20;;;;;;;13.20;6.68;;;;;;;;;;4989587;28;20050;-69
2022/03/03 13:09:56;;;;;;;15.88;8.10;;;;;;;;;;4989849;28;20054;-70
2022/03/03 13:12:44;;;;;;;16.42;6.93;;;;;;;;;;4941202;28;20502;-70
2022/03/03 13:15:15;;;;;;;18.17;8.05;;;;;;;;;;5040796;28;20064;-69
2022/03/03 13:18:00;;;;;;;24.35;9.07;;;;;;;;;;5048702;28;20493;-70
2022/03/03 13:20:35;;;;;;;22.85;8.10;;;;;;;;;;5008708;28;20498;-69
2022/03/03 13:23:09;;;;;;;19.02;7.38;;;;;;;;;;5008928;28;20050;-68
2022/03/03 13:25:42;;;;;;;21.40;8.25;;;;;;;;;;5066193;28;20060;-69
2022/03/03 13:28:24;;;;;;;18.67;7.47;;;;;;;;;;5068474;28;20044;-71
2022/03/03 13:31:02;;;;;;;17.15;6.90;;;;;;;;;;5028355;28;20548;-71
2022/03/03 13:34:04;;;;;;;17.83;7.90;;;;;;;;;;4996180;28;20469;-72
2022/03/03 13:36:41;;;;;;;24.58;9.18;;;;;;;;;;4969536;28;20055;-71
2022/03/03 13:39:34;;;;;;;22.58;8.45;;;;;;;;;;4954078;28;20061;-71
2022/03/03 13:42:20;;;;;;;21.52;8.48;;;;;;;;;;4937770;28;20055;-70
2022/03/03 13:44:53;;;;;;;24.33;9.32;;;;;;;;;;4949837;29;20056;-71
2022/03/03 13:47:31;;;;;;;16.35;7.97;;;;;;;;;;4918775;29;20520;-70
2022/03/03 13:50:02;;;;;;;14.52;6.60;;;;;;;;;;4950097;29;20050;-70
2022/03/03 13:52:36;;;;;;;15.55;7.03;;;;;;;;;;4931067;29;20592;-71
2022/03/03 13:55:14;;;;;;;13.95;5.35;;;;;;;;;;4931021;29;20519;-70
2022/03/03 13:57:47;;;;;;;9.65;5.38;;;;;;;;;;4924806;29;20406;-70
2022/03/03 14:00:26;;;;;;;7.97;3.25;;;;;;;;;;4930799;29;20052;-71
2022/03/03 14:03:07;;;;;;;6.68;3.65;;;;;;;;;;4946690;29;20066;-70
2022/03/03 14:05:45;;;;;;;7.05;3.58;;;;;;;;;;4946399;29;20059;-70
2022/03/03 14:08:28;;;;;;;5.32;3.08;;;;;;;;;;4910753;29;20055;-69
2022/03/03 14:11:07;;;;;;;6.57;3.47;;;;;;;;;;4918779;29;20063;-69
2022/03/03 14:13:49;;;;;;;7.05;3.90;;;;;;;;;;4977739;28;20054;-69
2022/03/03 14:16:24;;;;;;;6.25;2.85;;;;;;;;;;4986727;28;20066;-69
2022/03/03 14:19:00;;;;;;;5.47;2.65;;;;;;;;;;4985364;28;20668;-69
2022/03/03 14:21:31;;;;;;;4.40;2.60;;;;;;;;;;4975794;28;20050;-69
2022/03/03 14:24:09;;;;;;;2.42;1.52;;;;;;;;;;5017032;28;20440;-70
2022/03/03 14:26:58;;;;;;;4.20;1.40;;;;;;;;;;5012831;28;20053;-69
2022/03/03 14:29:32;;;;;;;5.85;1.58;;;;;;;;;;5024745;28;20113;-68
2022/03/03 14:32:03;;;;;;;5.15;3.20;;;;;;;;;;4973904;28;20893;-68
2022/03/03 14:34:36;;;;;;;6.80;1.60;;;;;;;;;;5026489;28;20061;-68
2022/03/03 14:37:09;;;;;;;2.50;1.35;;;;;;;;;;5024839;28;20064;-69
2022/03/03 14:39:39;;;;;;;2.28;1.33;;;;;;;;;;4989994;28;20060;-70
2022/03/03 14:42:09;;;;;;;4.82;1.35;;;;;;;;;;5025816;28;20055;-69
2022/03/03 14:44:39;;;;;;;2.05;1.15;;;;;;;;;;5013938;28;20072;-69
2022/03/03 14:47:11;;;;;;;1.83;1.02;;;;;;;;;;5043999;28;20045;-69
2022/03/03 14:49:47;;;;;;;1.45;1.05;;;;;;;;;;4995070;28;20516;-69
2022/03/03 14:52:20;;;;;;;4.13;1.48;;;;;;;;;;5026562;28;20075;-70
2022/03/03 14:54:50;;;;;;;1.92;1.20;;;;;;;;;;5045144;28;20076;-67
2022/03/03 14:57:22;;;;;;;2.25;1.10;;;;;;;;;;5042784;28;20057;-66
2022/03/03 14:59:55;;;;;;;2.83;1.40;;;;;;;;;;5049045;28;20080;-69
2022/03/03 15:02:28;;;;;;;2.30;1.23;;;;;;;;;;5014575;28;20064;-67
2022/03/03 15:04:58;;;;;;;1.90;1.13;;;;;;;;;;5031294;28;20060;-66
2022/03/03 15:07:32;;;;;;;1.40;0.95;;;;;;;;;;5036764;28;20056;-68
2022/03/03 15:10:04;;;;;;;1.98;1.10;;;;;;;;;;5064074;28;20056;-67
2022/03/03 15:12:39;;;;;;;1.30;0.90;;;;;;;;;;5114113;28;20047;-66
2022/03/03 15:15:10;;;;;;;1.10;0.73;;;;;;;;;;5114151;28;20048;-66
2022/03/03 15:17:43;;;;;;;4.57;2.40;;;;;;;;;;5079255;28;20075;-66
2022/03/03 15:20:18;;;;;;;1.83;0.95;;;;;;;;;;5114217;28;20035;-67
2022/03/03 15:22:50;;;;;;;2.55;0.80;;;;;;;;;;5113803;28;20044;-67